ADDS METAR Data INFO
IDs: Format: Raw Decoded Include TAF

Data at: 0733 UTC 18 Oct 2017

KUXL 180715Z AUTO 00000KT 10SM CLR 11/09 A3017 RMK AO2 T01120091
KUXL 180655Z AUTO 00000KT 10SM CLR 12/09 A3017 RMK AO2 T01150094
KUXL 180635Z AUTO 00000KT 10SM CLR 12/09 A3017 RMK AO2 T01160092
KUXL 180615Z AUTO 00000KT 10SM CLR 13/10 A3017 RMK AO2 T01250096
KUXL 180555Z AUTO 00000KT 10SM CLR 13/10 A3017 RMK AO2 T01270100 10217 20121 402570099
KUXL 180535Z AUTO 00000KT 10SM CLR 12/09 A3017 RMK AO2 T01210093
KUXL 180515Z AUTO 00000KT 10SM CLR 13/10 A3018 RMK AO2 T01300095
KUXL 180455Z AUTO 00000KT 10SM CLR 14/10 A3018 RMK AO2 T01360100
KUXL 180435Z AUTO 00000KT 10SM CLR 14/10 A3018 RMK AO2 T01350097
KUXL 180415Z AUTO 00000KT 10SM CLR 13/10 A3018 RMK AO2 T01300100
KUXL 180355Z AUTO 00000KT 10SM CLR 14/10 A3018 RMK AO2 T01350097
KUXL 180335Z AUTO 00000KT 10SM CLR 14/10 A3018 RMK AO2 T01390095
KUXL 180315Z AUTO 00000KT 10SM CLR 14/10 A3018 RMK AO2 T01400096
KUXL 180255Z AUTO 00000KT 10SM CLR 14/09 A3018 RMK AO2 T01410093
KUXL 180235Z AUTO 00000KT 10SM CLR 15/09 A3017 RMK AO2 T01520092
KUXL 180215Z AUTO 00000KT 7SM CLR 16/09 A3017 RMK AO2 T01570091
KUXL 180155Z AUTO 00000KT 5SM HZ CLR 16/09 A3017 RMK AO2 T01570093
KUXL 180135Z AUTO 00000KT 5SM HZ CLR 16/09 A3017 RMK AO2 T01610092
KUXL 180115Z AUTO 00000KT 10SM CLR 17/09 A3017 RMK AO2 T01650091
KUXL 180055Z AUTO 00000KT 4SM HZ CLR 17/09 A3016 RMK AO2 T01740093
KUXL 180035Z AUTO 00000KT 10SM CLR 20/08 A3015 RMK AO2 T02010078
KUXL 180015Z AUTO 04003KT 10SM CLR 21/08 A3015 RMK AO2 T02090076
KUXL 172355Z AUTO 02003KT 10SM CLR 22/07 A3014 RMK AO2 T02180069 10257 20218
KUXL 172335Z AUTO 04003KT 10SM CLR 22/07 A3014 RMK AO2 T02210068
KUXL 172315Z AUTO 05004KT 10SM CLR 23/07 A3013 RMK AO2 T02300070
KUXL 172255Z AUTO 02004KT 10SM CLR 24/07 A3013 RMK AO2 T02410069
KUXL 172235Z AUTO 02005KT 10SM CLR 25/07 A3014 RMK AO2 T02480069
KUXL 172215Z AUTO 03006KT 10SM CLR 25/07 A3013 RMK AO2 T02520070
KUXL 172155Z AUTO 02006KT 10SM CLR 26/06 A3013 RMK AO2 T02550064
KUXL 172135Z AUTO 03004KT 10SM CLR 26/06 A3014 RMK AO2 T02550059
KUXL 172115Z AUTO 03006KT 10SM CLR 26/06 A3014 RMK AO2 T02550056
KUXL 172055Z AUTO 04009KT 10SM CLR 26/06 A3014 RMK AO2 T02570059
KUXL 172035Z AUTO 02009KT 10SM CLR 26/06 A3015 RMK AO2 T02560055
KUXL 172015Z AUTO 35006KT 10SM CLR 26/06 A3015 RMK AO2 T02550062
KUXL 171955Z AUTO 02009KT 10SM CLR 25/07 A3016 RMK AO2 T02520067
KUXL 171935Z AUTO 02006KT 10SM CLR 25/06 A3017 RMK AO2 T02500061
KUXL 171915Z AUTO 01008KT 10SM CLR 25/06 A3017 RMK AO2 T02480059
KUXL 171855Z AUTO 36007KT 10SM CLR 24/06 A3018 RMK AO2 T02430060
KUXL 171835Z AUTO 01006KT 10SM CLR 24/06 A3019 RMK AO2 T02380063
KUXL 171815Z AUTO 04005KT 10SM CLR 23/06 A3021 RMK AO2 T02340063
KUXL 171755Z AUTO 10SM CLR 23/07 A3022 RMK AO2 T02320068 10232 20100
KUXL 171735Z AUTO 03008KT 330V040 10SM CLR 23/06 A3023 RMK AO2 T02250061
KUXL 171715Z AUTO 34006KT 10SM CLR 22/06 A3024 RMK AO2 T02200056
KUXL 171655Z AUTO 35007KT 290V360 10SM CLR 21/07 A3025 RMK AO2 T02140065
KUXL 171635Z AUTO 09003KT 10SM CLR 20/07 A3026 RMK AO2 T02010067
KUXL 171615Z AUTO 12003KT 10SM CLR 20/08 A3026 RMK AO2 T02000075
KUXL 171555Z AUTO 01004KT 10SM CLR 19/08 A3026 RMK AO2 T01910077
KUXL 171535Z AUTO 04006KT 10SM CLR 18/08 A3027 RMK AO2 T01840078
KUXL 171515Z AUTO 04006KT 10SM CLR 18/08 A3026 RMK AO2 T01790078
KUXL 171455Z AUTO 06007KT 10SM CLR 17/07 A3026 RMK AO2 T01700074
KUXL 171435Z AUTO 05010KT 10SM CLR 16/07 A3027 RMK AO2 T01630072
KUXL 171415Z AUTO 05008KT 10SM CLR 16/07 A3027 RMK AO2 T01550072
KUXL 171355Z AUTO 02004KT 10SM CLR 14/08 A3026 RMK AO2 T01440078
KUXL 171335Z AUTO 03005KT 10SM CLR 13/07 A3026 RMK AO2 T01290073
KUXL 171315Z AUTO 02005KT 10SM CLR 12/07 A3026 RMK AO2 T01210073
KUXL 171255Z AUTO 01003KT 10SM CLR 11/07 A3025 RMK AO2 T01080070
KUXL 171235Z AUTO 36004KT 10SM CLR 10/07 A3025 RMK AO2 T01010066
KUXL 171215Z AUTO 36003KT 10SM CLR 10/07 A3024 RMK AO2 T01020065
KUXL 171155Z AUTO 00000KT 10SM CLR 10/07 A3024 RMK AO2 T01020065 10155 20099
KUXL 171135Z AUTO 00000KT 10SM CLR 11/07 A3024 RMK AO2 T01070065
KUXL 171115Z AUTO 01004KT 10SM CLR 11/07 A3023 RMK AO2 T01050065
KUXL 171055Z AUTO 36003KT 10SM CLR 10/06 A3024 RMK AO2 T01000062
KUXL 171035Z AUTO 35005KT 10SM CLR 10/07 A3023 RMK AO2 T01020065
KUXL 171015Z AUTO 36004KT 10SM CLR 11/06 A3023 RMK AO2 T01050063
KUXL 170955Z AUTO 35003KT 10SM CLR 11/07 A3022 RMK AO2 T01130065
KUXL 170935Z AUTO 35004KT 10SM CLR 12/06 A3021 RMK AO2 T01180062
KUXL 170915Z AUTO 02004KT 10SM CLR 13/06 A3021 RMK AO2 T01250062
KUXL 170855Z AUTO 02006KT 10SM CLR 14/06 A3021 RMK AO2 T01350060
KUXL 170835Z AUTO 01006KT 10SM CLR 14/06 A3020 RMK AO2 T01390056
KUXL 170815Z AUTO 02005KT 10SM CLR 14/06 A3021 RMK AO2 T01410055
KUXL 170755Z AUTO 03005KT 10SM CLR 14/06 A3021 RMK AO2 T01430056
KUXL 170735Z AUTO 03006KT 10SM CLR 14/06 A3021 RMK AO2 T01430056
KUXL 170715Z AUTO 02004KT 10SM CLR 15/06 A3022 RMK AO2 T01460057
KUXL 170655Z AUTO 03005KT 10SM CLR 15/06 A3022 RMK AO2 T01460058
KUXL 170635Z AUTO 02007KT 10SM CLR 15/06 A3022 RMK AO2 T01500058
KUXL 170615Z AUTO 02008KT 10SM CLR 15/06 A3023 RMK AO2 T01530057
KUXL 170555Z AUTO 02007KT 10SM CLR 16/06 A3023 RMK AO2 T01550057 10207 20155 402530155
KUXL 170535Z AUTO 02008KT 10SM CLR 16/06 A3023 RMK AO2 T01610056
KUXL 170515Z AUTO 02008KT 10SM CLR 16/06 A3023 RMK AO2 T01640056
KUXL 170455Z AUTO 02006KT 10SM CLR 16/06 A3024 RMK AO2 T01640057
KUXL 170435Z AUTO 03006KT 10SM CLR 16/06 A3024 RMK AO2 T01640062
KUXL 170415Z AUTO 02007KT 10SM CLR 16/07 A3024 RMK AO2 T01620065
KUXL 170355Z AUTO 02007KT 10SM CLR 16/07 A3024 RMK AO2 T01620068
KUXL 170335Z AUTO 01004KT 10SM CLR 17/07 A3024 RMK AO2 T01660066
KUXL 170315Z AUTO 02006KT 10SM CLR 17/06 A3024 RMK AO2 T01710061
KUXL 170255Z AUTO 02008KT 10SM CLR 18/07 A3024 RMK AO2 T01750065
KUXL 170235Z AUTO 01006KT 10SM CLR 18/07 A3023 RMK AO2 T01760065
KUXL 170215Z AUTO 36007KT 10SM CLR 18/07 A3023 RMK AO2 T01760065
KUXL 170155Z AUTO 01005KT 10SM CLR 19/07 A3022 RMK AO2 T01850065
KUXL 170135Z AUTO 01006KT 10SM CLR 19/06 A3022 RMK AO2 T01900064
KUXL 170115Z AUTO 01008KT 10SM CLR 19/07 A3021 RMK AO2 T01920065
KUXL 170055Z AUTO 36007KT 10SM CLR 19/07 A3020 RMK AO2 T01930071
KUXL 170035Z AUTO 01005KT 10SM CLR 20/07 A3019 RMK AO2 T01950072
KUXL 170015Z AUTO 01005KT 10SM CLR 20/07 A3019 RMK AO2 T02000069
KUXL 162355Z AUTO 01006KT 10SM CLR 21/07 A3018 RMK AO2 T02060065 10253 20206
KUXL 162335Z AUTO 02007KT 10SM CLR 22/07 A3017 RMK AO2 T02160065
KUXL 162315Z AUTO 02005KT 10SM CLR 23/07 A3016 RMK AO2 T02260065
KUXL 162255Z AUTO 01010G16KT 10SM CLR 23/07 A3015 RMK AO2 T02330065
KUXL 162235Z AUTO 36010G15KT 10SM CLR 24/07 A3015 RMK AO2 T02400067
KUXL 162215Z AUTO 36010G16KT 10SM CLR 24/07 A3014 RMK AO2 T02420065
KUXL 162155Z AUTO 02012G17KT 10SM CLR 25/07 A3014 RMK AO2 T02450065
KUXL 162135Z AUTO 01012G16KT 10SM CLR 25/06 A3013 RMK AO2 T02450064
KUXL 162115Z AUTO 01008G15KT 340V040 10SM CLR 25/06 A3014 RMK AO2 T02450062
KUXL 162055Z AUTO 02009G15KT 10SM CLR 25/06 A3014 RMK AO2 T02470057
KUXL 162035Z AUTO 02010G17KT 10SM CLR 25/06 A3014 RMK AO2 T02500057
KUXL 162015Z AUTO 01014G20KT 10SM CLR 25/06 A3014 RMK AO2 T02480059
KUXL 161955Z AUTO 02013G22KT 10SM CLR 24/05 A3014 RMK AO2 T02400051
KUXL 161935Z AUTO 02013G19KT 10SM CLR 24/05 A3016 RMK AO2 T02420053